Crab Orchard, NE (68332)

11:33 PM CST on March 03, 2015 (GMT -0600)
Beatrice Municipal | Change Station
CLOSE
Current Station
Airport
Location: Beatrice,
Elevation: 1322 ft
Nearby Weather Stations

Elev 1322 ft 40.30 °N, 96.75 °W | Updated 18 minutes ago

Clear
Clear
20 °F
Feels Like 5 °F
N
18
Wind Variable Wind from North
Gusts 28 mph

Today
High -- | Low -- °F
--% Chance of Precip.
Yesterday
High -- | Low -- °F
Precip. -- in
6:56 AM 6:19 PM
Waxing Gibbous, 98% visible
Pressure 30.13 in
Visibility 10.0 miles
Clouds Scattered Clouds 7000 ft
Windchill 5 °F
Dew Point 8 °F
Humidity 59%
Rainfall 0.06 in
Snow Depth Not available.
UV 0 out of 12
Pollen 3.40 out of 12
Air Quality Not available.
Flu Activity Not available.
METAR KBIE 040515Z AUTO 36016G24KT 10SM SCT070 M07/M13 A3013 RMK AO2 T10671135

More Conditions Fewer Conditions

Pressure 30.13 in
Visibility 10.0 miles
Clouds Scattered Clouds 7000 ft
Windchill 5 °F
Dew Point 8 °F
Humidity 59%
Rainfall 0.06 in
Snow Depth Not available.
UV 0 out of 12
Pollen 3.40 out of 12
Air Quality Not available.
Flu Activity Not available.
METAR KBIE 040515Z AUTO 36016G24KT 10SM SCT070 M07/M13 A3013 RMK AO2 T10671135

More Conditions Fewer Conditions

10-Day Weather Forecast

Almanac

Astronomy

Mar. 03, 2015 Rise Set
Actual Time
Civil Twilight
Nautical Twilight
Astronomical Twilight
Moon
Length of Visible Light
Length of Day
Tomorrow will be .
, % of the Moon is Illuminated

Today's Extremes

State Highs State Lows

Community

WunderPhotos

Upload Photos

1,802,400 photos uploaded!

WunderBlogs® & News

Nearby

Air Quality

  Air Quality AQ Index Pollutant
Not available.

Snow Depth

Station Depth Elevation

Earthquake Activity

City Distance Mag. Time & Date
Minimum magnitude displayed is 2.5.

Coastal Water Temperatures

Place Temperature

Nearby Weather Stations